createdAt,value
2022-11-25T00:01:43.696Z,3.28
2022-11-25T00:03:48.934Z,3.67
2022-11-25T00:05:51.620Z,3.53
2022-11-25T00:07:54.431Z,3.45
2022-11-25T00:09:57.276Z,3.60
2022-11-25T00:12:00.107Z,3.40
2022-11-25T00:14:02.849Z,4.07
2022-11-25T00:16:07.359Z,3.13
2022-11-25T00:18:10.209Z,3.42
2022-11-25T00:20:15.733Z,3.38
2022-11-25T00:22:18.600Z,3.10
2022-11-25T00:24:21.308Z,3.30
2022-11-25T00:26:25.390Z,3.00
2022-11-25T00:28:29.062Z,3.80
2022-11-25T00:30:31.747Z,3.53
2022-11-25T00:32:34.454Z,3.33
2022-11-25T00:34:37.296Z,3.45
2022-11-25T00:36:41.844Z,3.10
2022-11-25T00:38:45.272Z,2.95
2022-11-25T00:41:07.955Z,3.22
2022-11-25T00:43:28.835Z,2.67
2022-11-25T00:45:30.607Z,3.55
2022-11-25T00:47:33.388Z,3.50
2022-11-25T00:49:36.616Z,2.92
2022-11-25T00:51:40.979Z,2.85
2022-11-25T00:53:43.806Z,3.42
2022-11-25T00:56:04.146Z,3.20
2022-11-25T00:58:06.888Z,2.65
2022-11-25T01:00:12.624Z,3.28
2022-11-25T01:02:17.225Z,3.05
2022-11-25T01:04:20.105Z,3.10
2022-11-25T01:06:23.817Z,3.47
2022-11-25T01:08:27.950Z,3.25
2022-11-25T01:10:30.694Z,3.45
2022-11-25T01:12:33.406Z,3.63
2022-11-25T01:14:36.610Z,3.15
2022-11-25T01:16:39.577Z,3.25
2022-11-25T01:18:42.571Z,3.15
2022-11-25T01:20:45.372Z,3.05
2022-11-25T01:22:48.159Z,3.55
2022-11-25T01:24:52.298Z,3.40
2022-11-25T01:26:56.067Z,3.10
2022-11-25T01:29:00.979Z,3.28
2022-11-25T01:31:05.160Z,3.28
2022-11-25T01:33:07.887Z,3.35
2022-11-25T01:35:11.401Z,3.20
2022-11-25T01:37:14.132Z,3.38
2022-11-25T01:39:19.425Z,3.20
2022-11-25T01:41:25.577Z,3.70
2022-11-25T01:43:29.578Z,3.22
2022-11-25T01:45:37.572Z,3.60
2022-11-25T01:47:40.277Z,4.20
2022-11-25T01:49:47.386Z,4.47
2022-11-25T01:51:55.096Z,3.88
2022-11-25T01:54:02.226Z,4.43
2022-11-25T01:56:05.430Z,4.30
2022-11-25T01:58:12.625Z,4.80
2022-11-25T02:00:16.688Z,4.68
2022-11-25T02:02:21.657Z,4.50
2022-11-25T02:04:29.256Z,4.35
2022-11-25T02:06:39.885Z,4.97
2022-11-25T02:08:46.675Z,4.43
2022-11-25T02:10:49.659Z,4.70
2022-11-25T02:12:53.537Z,5.20
2022-11-25T02:14:59.796Z,5.50
2022-11-25T02:17:03.098Z,4.72
2022-11-25T02:19:08.251Z,5.97
2022-11-25T02:21:11.107Z,5.10
2022-11-25T02:23:18.904Z,5.38
2022-11-25T02:25:25.222Z,5.45
2022-11-25T02:27:28.686Z,4.47
2022-11-25T02:29:31.507Z,4.32
2022-11-25T02:31:34.300Z,4.35
2022-11-25T02:33:37.158Z,4.55
2022-11-25T02:35:41.989Z,5.10
2022-11-25T02:37:44.777Z,4.25
2022-11-25T02:39:48.803Z,4.18
2022-11-25T02:41:56.375Z,5.03
2022-11-25T02:43:59.406Z,4.03
2022-11-25T02:46:05.639Z,5.50
2022-11-25T02:48:09.859Z,4.85
2022-11-25T02:50:13.899Z,4.53
2022-11-25T02:52:16.654Z,5.05
2022-11-25T02:54:19.454Z,5.72
2022-11-25T02:56:25.241Z,5.63
2022-11-25T02:58:29.711Z,4.55
2022-11-25T03:00:32.394Z,5.15
2022-11-25T03:02:35.230Z,4.85
2022-11-25T03:04:38.899Z,4.50
2022-11-25T03:06:41.815Z,4.13
2022-11-25T03:08:44.580Z,4.78
2022-11-25T03:10:47.327Z,4.18
2022-11-25T03:12:50.154Z,4.13
2022-11-25T03:14:54.276Z,4.22
2022-11-25T03:16:57.068Z,5.07
2022-11-25T03:18:59.831Z,4.28
2022-11-25T03:21:02.824Z,4.78
2022-11-25T03:23:06.639Z,5.10
2022-11-25T03:25:10.332Z,5.20
2022-11-25T03:27:13.081Z,4.80
2022-11-25T03:29:16.076Z,5.32
2022-11-25T03:31:20.484Z,5.82
2022-11-25T03:33:23.265Z,5.47
2022-11-25T03:35:25.930Z,5.72
2022-11-25T03:37:28.883Z,6.20
2022-11-25T03:39:31.706Z,5.40
2022-11-25T03:41:34.645Z,5.50
2022-11-25T03:43:37.374Z,5.65
2022-11-25T03:45:40.230Z,5.30
2022-11-25T03:47:45.142Z,5.90
2022-11-25T03:49:48.116Z,5.53
2022-11-25T03:51:50.879Z,5.72
2022-11-25T03:53:53.792Z,5.50
2022-11-25T03:55:56.607Z,5.18
2022-11-25T03:57:59.299Z,6.20
2022-11-25T04:00:02.208Z,6.07
2022-11-25T04:02:05.217Z,6.43
2022-11-25T04:04:09.342Z,6.75
2022-11-25T04:06:12.173Z,6.35
2022-11-25T04:08:14.967Z,7.32
2022-11-25T04:10:17.860Z,7.28
2022-11-25T04:12:38.257Z,6.82
2022-11-25T04:14:40.979Z,7.28
2022-11-25T04:16:43.763Z,7.60
2022-11-25T04:18:46.570Z,6.75
2022-11-25T04:20:50.768Z,6.32
2022-11-25T04:22:53.755Z,5.13
2022-11-25T04:24:56.519Z,6.63
2022-11-25T04:26:59.200Z,6.22
2022-11-25T04:29:02.236Z,7.03
2022-11-25T04:31:07.879Z,7.53
2022-11-25T04:33:10.674Z,7.05
2022-11-25T04:35:13.471Z,7.22
2022-11-25T04:37:17.602Z,8.32
2022-11-25T04:39:20.451Z,8.45
2022-11-25T04:41:23.461Z,8.32
2022-11-25T04:43:26.279Z,7.45
2022-11-25T04:45:45.352Z,9.85
2022-11-25T04:47:52.066Z,8.50
2022-11-25T04:49:54.822Z,9.10
2022-11-25T04:51:57.799Z,9.60
2022-11-25T04:54:02.002Z,10.18
2022-11-25T04:56:05.878Z,8.57
2022-11-25T04:58:08.698Z,8.63
2022-11-25T05:00:11.784Z,8.45
2022-11-25T05:02:16.296Z,9.18
2022-11-25T05:04:19.032Z,9.10
2022-11-25T05:06:21.816Z,8.60
2022-11-25T05:08:24.574Z,8.30
2022-11-25T05:10:28.643Z,8.25
2022-11-25T05:12:31.889Z,8.35
2022-11-25T05:14:35.719Z,8.85
2022-11-25T05:16:38.671Z,7.00
2022-11-25T05:18:41.436Z,7.22
2022-11-25T05:20:44.925Z,7.00
2022-11-25T05:22:47.666Z,7.57
2022-11-25T05:24:50.450Z,6.57
2022-11-25T05:26:54.471Z,6.60
2022-11-25T05:28:57.191Z,6.60
2022-11-25T05:30:59.992Z,6.60
2022-11-25T05:33:02.751Z,6.78
2022-11-25T05:35:05.971Z,6.63
2022-11-25T05:37:09.204Z,6.07
2022-11-25T05:39:11.959Z,6.50
2022-11-25T05:41:14.733Z,7.75
2022-11-25T05:43:18.955Z,7.55
2022-11-25T05:45:21.665Z,7.53
2022-11-25T05:47:24.393Z,5.88
2022-11-25T05:49:27.129Z,6.72
2022-11-25T05:51:29.995Z,7.10
2022-11-25T05:53:33.019Z,7.10
2022-11-25T05:55:35.682Z,7.07
2022-11-25T05:57:38.449Z,6.50
2022-11-25T05:59:42.579Z,7.72
2022-11-25T06:01:45.275Z,7.82
2022-11-25T06:03:48.062Z,8.23
2022-11-25T06:05:50.835Z,7.43
2022-11-25T06:07:53.978Z,7.47
2022-11-25T06:10:02.713Z,7.28
2022-11-25T06:12:06.114Z,7.25
2022-11-25T06:14:08.816Z,8.65
2022-11-25T06:16:15.564Z,8.27
2022-11-25T06:18:19.370Z,8.05
2022-11-25T06:20:22.124Z,7.63
2022-11-25T06:22:24.846Z,7.43
2022-11-25T06:24:27.595Z,6.85
2022-11-25T06:26:30.604Z,6.78
2022-11-25T06:28:33.438Z,6.32
2022-11-25T06:30:36.179Z,5.85
2022-11-25T06:32:40.260Z,6.38
2022-11-25T06:34:43.041Z,6.00
2022-11-25T06:36:45.806Z,6.50
2022-11-25T06:38:50.029Z,6.32
2022-11-25T06:40:55.237Z,5.68
2022-11-25T06:43:00.438Z,5.75
2022-11-25T06:45:03.298Z,5.72
2022-11-25T06:47:06.274Z,6.03
2022-11-25T06:49:10.365Z,5.65
2022-11-25T06:51:15.415Z,5.88
2022-11-25T06:53:23.807Z,5.75
2022-11-25T06:55:26.852Z,5.80
2022-11-25T06:57:29.587Z,5.78
2022-11-25T06:59:33.491Z,5.95
2022-11-25T07:01:36.397Z,5.90
2022-11-25T07:03:39.600Z,5.80
2022-11-25T07:05:43.790Z,5.45
2022-11-25T07:07:46.644Z,5.57
2022-11-25T07:09:49.352Z,5.43
2022-11-25T07:11:52.105Z,5.20
2022-11-25T07:13:55.969Z,5.75
2022-11-25T07:16:02.075Z,5.32
2022-11-25T07:18:05.250Z,5.03
2022-11-25T07:20:09.075Z,4.95
2022-11-25T07:22:13.160Z,4.43
2022-11-25T07:24:17.519Z,4.57
2022-11-25T07:26:22.369Z,5.40
2022-11-25T07:28:25.096Z,4.93
2022-11-25T07:32:50.548Z,3.70
2022-11-25T07:34:53.271Z,4.28
2022-11-25T07:36:55.948Z,3.90
2022-11-25T07:39:01.425Z,4.85
2022-11-25T07:41:06.359Z,4.55
2022-11-25T07:43:09.043Z,4.38
2022-11-25T07:45:12.014Z,4.10
2022-11-25T07:47:14.766Z,4.30
2022-11-25T07:49:19.511Z,4.30
2022-11-25T07:51:24.257Z,4.70
2022-11-25T07:53:26.990Z,5.40
2022-11-25T07:55:31.092Z,4.40
2022-11-25T07:57:33.795Z,4.45
2022-11-25T07:59:41.213Z,4.65
2022-11-25T08:01:44.541Z,4.97
2022-11-25T08:03:49.718Z,4.38
2022-11-25T08:05:52.433Z,4.60
2022-11-25T08:07:55.244Z,4.40
2022-11-25T08:09:57.955Z,5.15
2022-11-25T08:12:02.318Z,4.97
2022-11-25T08:14:05.608Z,4.30
2022-11-25T08:16:09.066Z,5.00
2022-11-25T08:18:12.006Z,4.72
2022-11-25T08:20:15.053Z,3.97
2022-11-25T08:22:17.765Z,3.97
2022-11-25T08:24:21.957Z,3.95
2022-11-25T08:26:26.797Z,4.75
2022-11-25T08:28:30.969Z,4.63
2022-11-25T08:30:33.818Z,3.92
2022-11-25T08:32:38.579Z,3.15
2022-11-25T08:34:41.297Z,3.20
2022-11-25T08:36:48.279Z,4.00
2022-11-25T08:38:53.801Z,3.67
2022-11-25T08:40:57.490Z,3.72
2022-11-25T08:43:00.412Z,3.35
2022-11-25T08:45:05.791Z,3.40
2022-11-25T08:47:09.870Z,3.53
2022-11-25T08:49:13.567Z,3.58
2022-11-25T08:51:19.124Z,3.65
2022-11-25T08:53:22.960Z,3.03
2022-11-25T08:55:27.291Z,3.70
2022-11-25T08:57:29.975Z,3.20
2022-11-25T08:59:32.701Z,2.85
2022-11-25T09:01:36.798Z,3.33
2022-11-25T09:03:41.540Z,3.65
2022-11-25T09:05:45.515Z,3.55
2022-11-25T09:07:48.361Z,4.25
2022-11-25T09:09:51.114Z,3.25
2022-11-25T09:11:53.955Z,3.28
2022-11-25T09:13:56.858Z,2.85
2022-11-25T09:16:01.209Z,3.00
2022-11-25T09:18:08.079Z,3.13
2022-11-25T09:22:13.796Z,3.05
2022-11-25T09:24:16.568Z,3.03
2022-11-25T09:26:23.467Z,3.47
2022-11-25T09:28:27.719Z,3.40
2022-11-25T09:30:30.843Z,3.13
2022-11-25T09:32:33.567Z,3.20
2022-11-25T09:34:37.943Z,3.30
2022-11-25T09:36:40.740Z,2.97
2022-11-25T09:38:44.973Z,3.08
2022-11-25T09:40:56.362Z,3.13
2022-11-25T09:43:25.425Z,3.22
2022-11-25T09:45:54.175Z,3.13
2022-11-25T09:48:07.633Z,3.28
2022-11-25T09:50:19.865Z,3.53
2022-11-25T09:52:31.249Z,3.85
2022-11-25T09:54:38.015Z,3.13
2022-11-25T09:58:52.820Z,3.33
2022-11-25T10:00:55.635Z,2.90
2022-11-25T10:03:05.652Z,3.00
2022-11-25T10:05:14.545Z,3.72
2022-11-25T10:07:23.024Z,3.55
2022-11-25T10:09:28.832Z,3.85
2022-11-25T10:11:47.799Z,3.20
2022-11-25T10:13:55.807Z,3.22
2022-11-25T10:16:00.573Z,2.90
2022-11-25T10:18:11.554Z,3.78
2022-11-25T10:20:21.027Z,3.10
2022-11-25T10:22:27.575Z,3.40
2022-11-25T10:24:30.263Z,3.58
2022-11-25T10:26:41.241Z,3.88
2022-11-25T10:28:53.092Z,3.65
2022-11-25T10:31:02.319Z,3.67
2022-11-25T10:33:14.975Z,3.40
2022-11-25T10:35:25.699Z,3.58
2022-11-25T10:37:34.875Z,3.90
2022-11-25T10:39:37.591Z,3.30
2022-11-25T10:41:47.541Z,3.33
2022-11-25T10:43:50.482Z,3.63
2022-11-25T10:46:03.811Z,3.55
2022-11-25T10:48:19.656Z,3.20
2022-11-25T10:50:32.388Z,3.72
2022-11-25T10:52:41.864Z,2.92
2022-11-25T10:54:57.428Z,3.30
2022-11-25T10:57:02.257Z,3.20
2022-11-25T10:59:14.960Z,2.72
2022-11-25T11:01:21.789Z,2.58
2022-11-25T11:03:27.743Z,2.60
2022-11-25T11:05:31.933Z,2.53
2022-11-25T11:07:38.569Z,2.42
2022-11-25T11:11:48.925Z,2.28
2022-11-25T11:13:59.741Z,2.45
2022-11-25T11:16:03.054Z,2.33
2022-11-25T11:18:24.313Z,2.97
2022-11-25T11:20:29.682Z,2.47
2022-11-25T11:22:33.882Z,2.95
2022-11-25T11:24:38.986Z,2.50
2022-11-25T11:26:41.932Z,2.38
2022-11-25T11:28:45.356Z,2.58
2022-11-25T11:30:57.714Z,2.33
2022-11-25T11:33:06.529Z,1.35
2022-11-25T11:35:22.130Z,2.17
2022-11-25T11:37:37.609Z,2.25
2022-11-25T11:40:03.165Z,1.83
2022-11-25T11:42:15.095Z,1.90
2022-11-25T11:44:28.461Z,1.95
2022-11-25T11:46:41.953Z,2.00
2022-11-25T11:48:56.217Z,1.60
2022-11-25T11:51:07.274Z,1.55
2022-11-25T11:53:21.943Z,1.90
2022-11-25T11:55:40.738Z,2.22
2022-11-25T11:57:54.362Z,1.88
2022-11-25T11:59:59.629Z,2.25
2022-11-25T12:02:23.975Z,1.65
2022-11-25T12:04:32.123Z,2.35
2022-11-25T12:06:38.676Z,2.60
2022-11-25T12:08:50.908Z,2.38
2022-11-25T12:10:59.522Z,3.25
2022-11-25T12:13:12.640Z,3.10
2022-11-25T12:15:20.922Z,3.20
2022-11-25T12:17:29.691Z,3.17
2022-11-25T12:19:40.412Z,3.55
2022-11-25T12:21:52.416Z,2.95
2022-11-25T12:24:04.119Z,3.75
2022-11-25T12:26:26.743Z,3.03
2022-11-25T12:28:36.601Z,2.50
2022-11-25T12:30:45.776Z,2.92
2022-11-25T12:32:54.595Z,2.97
2022-11-25T12:35:03.215Z,2.80
2022-11-25T12:37:15.254Z,2.10
2022-11-25T12:39:26.648Z,2.10
2022-11-25T12:41:41.449Z,2.00
2022-11-25T12:43:48.793Z,1.60
2022-11-25T12:46:01.387Z,1.92
2022-11-25T12:50:15.425Z,2.20
2022-11-25T12:52:47.774Z,1.90
2022-11-25T12:55:10.855Z,2.00
2022-11-25T12:57:49.215Z,1.92
2022-11-25T13:00:39.385Z,1.90
2022-11-25T13:03:01.104Z,1.88
2022-11-25T13:05:48.644Z,1.88
2022-11-25T13:08:04.539Z,1.92
2022-11-25T13:10:29.588Z,1.85
2022-11-25T13:12:42.403Z,2.10
2022-11-25T13:15:14.161Z,2.50
2022-11-25T13:17:18.876Z,3.08
2022-11-25T13:19:22.231Z,3.30
2022-11-25T13:21:29.046Z,4.03
2022-11-25T13:23:48.658Z,3.35
2022-11-25T13:26:12.871Z,3.80
2022-11-25T13:28:31.630Z,3.17
2022-11-25T13:30:40.103Z,3.53
2022-11-25T13:32:46.165Z,3.95
2022-11-25T13:34:49.069Z,3.30
2022-11-25T13:36:53.160Z,3.75
2022-11-25T13:39:04.107Z,3.10
2022-11-25T13:41:23.403Z,3.95
2022-11-25T13:43:26.465Z,3.60
2022-11-25T13:45:33.709Z,4.82
2022-11-25T13:47:39.364Z,3.40
2022-11-25T13:49:53.194Z,3.85
2022-11-25T13:52:17.734Z,3.10
2022-11-25T13:56:30.225Z,3.15
2022-11-25T13:58:36.061Z,3.17
2022-11-25T14:01:05.540Z,3.42
2022-11-25T14:03:44.830Z,2.40
2022-11-25T14:06:01.822Z,2.13
2022-11-25T14:08:15.843Z,2.05
2022-11-25T14:10:32.408Z,2.42
2022-11-25T14:12:49.613Z,2.35
2022-11-25T14:15:12.803Z,1.90
2022-11-25T14:17:31.896Z,2.10
2022-11-25T14:20:05.137Z,2.42
2022-11-25T14:22:24.077Z,2.10
2022-11-25T14:24:35.246Z,2.10
2022-11-25T14:26:55.908Z,2.13
2022-11-25T14:29:03.623Z,1.55
2022-11-25T14:31:10.366Z,1.85
2022-11-25T14:35:22.924Z,1.63
2022-11-25T14:37:30.728Z,1.70
2022-11-25T14:39:37.690Z,1.55
2022-11-25T14:41:45.383Z,1.65
2022-11-25T14:43:53.636Z,1.50
2022-11-25T14:46:10.770Z,2.03
2022-11-25T14:48:16.809Z,1.50
2022-11-25T14:50:34.585Z,1.42
2022-11-25T14:54:42.838Z,1.60
2022-11-25T14:56:46.270Z,1.88
2022-11-25T14:58:50.928Z,1.70
2022-11-25T15:01:01.734Z,1.98
2022-11-25T15:03:06.569Z,1.40
2022-11-25T15:05:20.711Z,1.77
2022-11-25T15:07:30.736Z,1.55
2022-11-25T15:09:39.388Z,1.48
2022-11-25T15:11:42.350Z,1.98
2022-11-25T15:13:47.768Z,1.92
2022-11-25T15:15:51.743Z,1.77
2022-11-25T15:17:55.368Z,1.60
2022-11-25T15:20:00.364Z,1.58
2022-11-25T15:22:22.321Z,1.60
2022-11-25T15:24:28.328Z,1.67
2022-11-25T15:26:33.586Z,1.95
2022-11-25T15:28:37.658Z,1.95
2022-11-25T15:30:40.401Z,1.60
2022-11-25T15:32:43.251Z,1.90
2022-11-25T15:34:47.353Z,2.10
2022-11-25T15:36:54.195Z,2.60
2022-11-25T15:39:15.003Z,2.40
2022-11-25T15:41:33.855Z,2.38
2022-11-25T15:43:42.017Z,2.17
2022-11-25T15:45:47.206Z,1.90
2022-11-25T15:47:50.486Z,2.53
2022-11-25T15:50:01.130Z,1.95
2022-11-25T15:52:07.093Z,1.85
2022-11-25T15:54:20.098Z,1.80
2022-11-25T15:56:27.103Z,2.28
2022-11-25T15:58:30.456Z,1.90
2022-11-25T16:00:33.496Z,2.05
2022-11-25T16:02:39.203Z,2.10
2022-11-25T16:04:42.018Z,2.22
2022-11-25T16:06:55.004Z,1.75
2022-11-25T16:09:00.566Z,1.55
2022-11-25T16:11:19.501Z,1.70
2022-11-25T16:13:38.442Z,1.50
2022-11-25T16:15:46.925Z,1.70
2022-11-25T16:17:49.652Z,1.83
2022-11-25T16:19:52.417Z,2.05
2022-11-25T16:22:00.103Z,1.52
2022-11-25T16:24:14.984Z,2.03
2022-11-25T16:26:23.930Z,2.22
2022-11-25T16:28:26.810Z,3.35
2022-11-25T16:30:29.604Z,3.33
2022-11-25T16:32:33.688Z,2.50
2022-11-25T16:34:36.738Z,2.15
2022-11-25T16:36:39.670Z,2.45
2022-11-25T16:38:42.512Z,2.45
2022-11-25T16:40:45.923Z,3.13
2022-11-25T16:42:51.678Z,3.05
2022-11-25T16:44:54.456Z,3.40
2022-11-25T16:46:58.473Z,4.28
2022-11-25T16:49:05.442Z,4.85
2022-11-25T16:51:14.645Z,4.47
2022-11-25T16:53:17.742Z,7.72
2022-11-25T16:55:20.546Z,19.20
2022-11-25T16:57:23.601Z,3.35
2022-11-25T16:59:31.657Z,3.30
2022-11-25T17:01:35.268Z,4.22
2022-11-25T17:03:38.263Z,8.60
2022-11-25T17:05:41.027Z,3.95
2022-11-25T17:07:43.862Z,3.03
2022-11-25T17:09:47.337Z,2.25
2022-11-25T17:11:54.857Z,3.00
2022-11-25T17:14:00.737Z,2.97
2022-11-25T17:16:05.426Z,1.92
2022-11-25T17:18:09.070Z,2.47
2022-11-25T17:20:15.974Z,2.80
2022-11-25T17:22:21.008Z,2.90
2022-11-25T17:24:25.517Z,3.67
2022-11-25T17:26:36.825Z,2.35
2022-11-25T17:28:39.769Z,3.47
2022-11-25T17:30:43.899Z,2.20
2022-11-25T17:32:48.904Z,3.45
2022-11-25T17:34:51.809Z,2.88
2022-11-25T17:36:54.675Z,3.15
2022-11-25T17:38:57.626Z,4.85
2022-11-25T17:41:00.366Z,3.88
2022-11-25T17:43:03.191Z,5.30
2022-11-25T17:45:13.216Z,4.93
2022-11-25T17:47:18.202Z,5.22
2022-11-25T17:49:22.749Z,3.38
2022-11-25T17:51:25.519Z,2.97
2022-11-25T17:53:28.291Z,5.00
2022-11-25T17:55:32.253Z,3.00
2022-11-25T17:57:35.643Z,2.20
2022-11-25T17:59:38.589Z,2.60
2022-11-25T18:01:41.481Z,2.75
2022-11-25T18:03:44.225Z,2.25
2022-11-25T18:05:48.288Z,2.38
2022-11-25T18:07:51.489Z,2.63
2022-11-25T18:09:54.280Z,2.80
2022-11-25T18:12:00.240Z,2.33
2022-11-25T18:14:03.075Z,3.53
2022-11-25T18:16:06.888Z,3.22
2022-11-25T18:18:20.149Z,3.72
2022-11-25T18:20:25.634Z,4.10
2022-11-25T18:22:30.788Z,3.10
2022-11-25T18:24:33.458Z,4.20
2022-11-25T18:26:43.643Z,3.55
2022-11-25T18:28:46.634Z,4.07
2022-11-25T18:30:50.468Z,3.20
2022-11-25T18:32:53.812Z,3.90
2022-11-25T18:34:56.819Z,2.78
2022-11-25T18:36:59.710Z,3.10
2022-11-25T18:39:04.016Z,2.53
2022-11-25T18:41:07.111Z,2.60
2022-11-25T18:43:15.910Z,2.70
2022-11-25T18:45:21.491Z,2.53
2022-11-25T18:47:24.632Z,2.65
2022-11-25T18:49:27.661Z,2.88
2022-11-25T18:51:30.437Z,3.08
2022-11-25T18:53:33.543Z,3.45
2022-11-25T18:55:38.088Z,2.75
2022-11-25T18:57:42.446Z,3.58
2022-11-25T18:59:48.040Z,3.40
2022-11-25T19:01:59.040Z,3.10
2022-11-25T19:04:01.817Z,3.13
2022-11-25T19:06:04.711Z,3.03
2022-11-25T19:08:07.457Z,3.00
2022-11-25T19:10:13.752Z,3.45
2022-11-25T19:12:21.335Z,2.88
2022-11-25T19:14:30.976Z,3.10
2022-11-25T19:16:34.086Z,3.08
2022-11-25T19:18:36.982Z,3.20
2022-11-25T19:20:39.747Z,3.15
2022-11-25T19:22:42.688Z,3.00
2022-11-25T19:24:45.934Z,3.08
2022-11-25T19:26:50.991Z,2.78
2022-11-25T19:29:00.635Z,3.15
2022-11-25T19:31:04.845Z,8.00
2022-11-25T19:33:16.266Z,12.68
2022-11-25T19:35:23.688Z,28.38
2022-11-25T19:37:29.976Z,15.73
2022-11-25T19:39:36.651Z,5.97
2022-11-25T19:41:39.356Z,4.25
2022-11-25T19:43:42.060Z,3.58
2022-11-25T19:45:46.707Z,3.67
2022-11-25T19:47:51.907Z,3.25
2022-11-25T19:49:58.411Z,3.70
2022-11-25T19:52:01.174Z,4.00
2022-11-25T19:54:04.216Z,3.13
2022-11-25T19:56:07.739Z,3.40
2022-11-25T19:58:10.767Z,3.40
2022-11-25T20:00:15.529Z,3.70
2022-11-25T20:02:23.158Z,3.22
2022-11-25T20:04:26.180Z,4.07
2022-11-25T20:06:30.314Z,3.63
2022-11-25T20:08:33.038Z,4.50
2022-11-25T20:10:36.072Z,6.55
2022-11-25T20:12:38.780Z,5.85
2022-11-25T20:14:41.623Z,4.70
2022-11-25T20:16:44.384Z,4.10
2022-11-25T20:18:49.321Z,4.80
2022-11-25T20:20:57.197Z,4.22
2022-11-25T20:23:03.569Z,3.67
2022-11-25T20:25:10.656Z,3.08
2022-11-25T20:27:13.914Z,3.58
2022-11-25T20:29:19.415Z,3.22
2022-11-25T20:31:25.144Z,3.10
2022-11-25T20:33:30.145Z,3.63
2022-11-25T20:35:34.553Z,3.33
2022-11-25T20:37:50.559Z,3.50
2022-11-25T20:39:55.187Z,3.42
2022-11-25T20:41:57.913Z,2.83
2022-11-25T20:44:01.494Z,3.47
2022-11-25T20:46:04.619Z,3.08
2022-11-25T20:48:11.465Z,3.60
2022-11-25T20:52:25.079Z,3.38
2022-11-25T20:54:27.960Z,3.13
2022-11-25T20:56:31.290Z,3.85
2022-11-25T20:58:34.520Z,4.05
2022-11-25T21:00:37.285Z,3.53
2022-11-25T21:02:40.008Z,3.45
2022-11-25T21:04:42.951Z,4.28
2022-11-25T21:06:46.177Z,3.75
2022-11-25T21:08:52.713Z,3.10
2022-11-25T21:10:57.176Z,3.20
2022-11-25T21:12:59.986Z,2.63
2022-11-25T21:15:02.700Z,3.33
2022-11-25T21:17:06.252Z,3.28
2022-11-25T21:19:09.006Z,2.85
2022-11-25T21:21:16.963Z,3.67
2022-11-25T21:23:22.895Z,3.45
2022-11-25T21:25:27.172Z,3.10
2022-11-25T21:27:30.235Z,3.03
2022-11-25T21:29:33.220Z,3.72
2022-11-25T21:31:36.034Z,4.03
2022-11-25T21:33:38.821Z,3.67
2022-11-25T21:35:43.704Z,3.75
2022-11-25T21:37:46.591Z,3.65
2022-11-25T21:39:49.447Z,4.07
2022-11-25T21:41:54.109Z,3.40
2022-11-25T21:43:57.034Z,3.85
2022-11-25T21:46:03.110Z,3.60
2022-11-25T21:48:15.014Z,5.03
2022-11-25T21:50:19.599Z,4.70
2022-11-25T21:52:22.718Z,3.90
2022-11-25T21:54:25.461Z,3.33
2022-11-25T21:56:31.877Z,3.10
2022-11-25T21:58:36.260Z,3.08
2022-11-25T22:00:39.024Z,2.90
2022-11-25T22:02:44.000Z,3.28
2022-11-25T22:04:46.762Z,3.13
2022-11-25T22:06:50.968Z,2.58
2022-11-25T22:08:53.995Z,2.58
2022-11-25T22:10:56.866Z,2.67
2022-11-25T22:12:59.666Z,2.38
2022-11-25T22:15:04.063Z,2.97
2022-11-25T22:17:11.457Z,2.80
2022-11-25T22:19:20.602Z,2.70
2022-11-25T22:21:23.427Z,2.95
2022-11-25T22:23:26.527Z,3.20
2022-11-25T22:25:31.866Z,2.92
2022-11-25T22:27:37.022Z,2.55
2022-11-25T22:29:40.003Z,2.90
2022-11-25T22:31:44.618Z,2.75
2022-11-25T22:33:48.209Z,3.40
2022-11-25T22:35:51.307Z,2.72
2022-11-25T22:37:55.489Z,2.90
2022-11-25T22:39:58.451Z,2.55
2022-11-25T22:42:05.213Z,2.28
2022-11-25T22:46:12.627Z,2.72
2022-11-25T22:48:19.271Z,2.08
2022-11-25T22:50:27.450Z,3.38
2022-11-25T22:52:32.387Z,2.72
2022-11-25T22:54:35.289Z,3.50
2022-11-25T22:56:38.193Z,3.00
2022-11-25T22:58:40.922Z,2.40
2022-11-25T23:00:46.420Z,2.92
2022-11-25T23:02:50.475Z,2.97
2022-11-25T23:04:56.796Z,3.15
2022-11-25T23:06:59.514Z,2.90
2022-11-25T23:09:03.007Z,3.47
2022-11-25T23:11:05.982Z,3.53
2022-11-25T23:13:09.051Z,3.85
2022-11-25T23:15:14.981Z,3.80
2022-11-25T23:17:20.344Z,3.60
2022-11-25T23:19:23.076Z,3.20
2022-11-25T23:21:29.070Z,3.28
2022-11-25T23:23:32.132Z,3.75
2022-11-25T23:25:34.905Z,3.47
2022-11-25T23:27:37.582Z,3.50
2022-11-25T23:29:40.559Z,3.42
2022-11-25T23:31:43.798Z,3.30
2022-11-25T23:33:49.341Z,3.35
2022-11-25T23:35:52.201Z,3.47
2022-11-25T23:37:58.132Z,3.10
2022-11-25T23:40:00.901Z,3.80
2022-11-25T23:42:03.650Z,4.07
2022-11-25T23:44:14.622Z,3.75
2022-11-25T23:46:20.009Z,4.03
2022-11-25T23:48:25.895Z,4.63
2022-11-25T23:50:32.373Z,3.47
2022-11-25T23:52:35.141Z,3.67
2022-11-25T23:54:42.505Z,4.13
2022-11-25T23:56:45.213Z,3.88
2022-11-25T23:58:49.426Z,3.67
